createdAt,value
2023-03-12T00:00:28.049Z,2.00
2023-03-12T00:02:58.757Z,2.00
2023-03-12T00:05:28.800Z,2.10
2023-03-12T00:07:59.637Z,2.10
2023-03-12T00:10:31.872Z,2.10
2023-03-12T00:12:58.574Z,2.10
2023-03-12T00:15:25.556Z,2.10
2023-03-12T00:17:52.255Z,2.10
2023-03-12T00:20:19.877Z,2.20
2023-03-12T00:22:46.586Z,2.20
2023-03-12T00:25:15.709Z,2.20
2023-03-12T00:27:45.307Z,2.20
2023-03-12T00:30:12.429Z,2.20
2023-03-12T00:32:39.151Z,2.30
2023-03-12T00:35:06.587Z,2.30
2023-03-12T00:37:33.648Z,2.30
2023-03-12T00:40:01.803Z,2.20
2023-03-12T00:42:31.288Z,2.20
2023-03-12T00:45:00.197Z,2.20
2023-03-12T00:47:29.318Z,2.30
2023-03-12T00:49:58.446Z,2.30
2023-03-12T00:52:25.086Z,2.30
2023-03-12T00:54:58.116Z,2.30
2023-03-12T00:57:25.256Z,2.30
2023-03-12T00:59:51.885Z,2.30
2023-03-12T01:02:20.778Z,2.30
2023-03-12T01:04:49.884Z,2.30
2023-03-12T01:07:16.500Z,2.30
2023-03-12T01:09:47.568Z,2.30
2023-03-12T01:12:14.388Z,2.30
2023-03-12T01:14:41.057Z,2.30
2023-03-12T01:17:09.920Z,2.30
2023-03-12T01:19:36.586Z,2.30
2023-03-12T01:22:03.311Z,2.40
2023-03-12T01:24:30.038Z,2.30
2023-03-12T01:26:58.849Z,2.40
2023-03-12T01:29:28.017Z,2.40
2023-03-12T01:31:57.069Z,2.40
2023-03-12T01:34:23.707Z,2.40
2023-03-12T01:36:50.611Z,2.30
2023-03-12T01:39:19.681Z,2.40
2023-03-12T01:41:46.361Z,2.30
2023-03-12T01:44:14.685Z,2.30
2023-03-12T01:46:43.393Z,2.20
2023-03-12T01:49:34.514Z,2.10
2023-03-12T01:52:09.010Z,2.10
2023-03-12T01:54:44.479Z,2.10
2023-03-12T01:57:18.425Z,2.10
2023-03-12T01:59:49.750Z,2.10
2023-03-12T02:02:18.547Z,2.20
2023-03-12T02:04:47.648Z,2.20
2023-03-12T02:07:19.460Z,2.20
2023-03-12T02:09:49.344Z,2.20
2023-03-12T02:12:20.415Z,2.20
2023-03-12T02:14:49.552Z,2.20
2023-03-12T02:17:16.306Z,2.20
2023-03-12T02:20:13.398Z,2.20
2023-03-12T02:22:48.991Z,2.30
2023-03-12T02:25:21.555Z,2.30
2023-03-12T02:27:48.603Z,2.30
2023-03-12T02:30:19.600Z,2.40
2023-03-12T02:32:48.428Z,2.40
2023-03-12T02:35:16.477Z,2.40
2023-03-12T02:37:48.672Z,2.50
2023-03-12T02:40:36.757Z,2.50
2023-03-12T02:43:07.027Z,2.50
2023-03-12T02:45:34.980Z,2.50
2023-03-12T02:48:02.624Z,2.50
2023-03-12T02:50:31.461Z,2.50
2023-03-12T02:52:58.068Z,2.50
2023-03-12T02:55:24.699Z,2.60
2023-03-12T02:57:51.370Z,2.60
2023-03-12T03:00:22.863Z,2.60
2023-03-12T03:02:49.489Z,2.60
2023-03-12T03:05:20.297Z,2.60
2023-03-12T03:07:47.045Z,2.70
2023-03-12T03:10:15.477Z,2.70
2023-03-12T03:12:42.155Z,2.70
2023-03-12T03:15:13.644Z,2.70
2023-03-12T03:17:40.269Z,2.70
2023-03-12T03:20:10.983Z,2.70
2023-03-12T03:22:40.780Z,2.70
2023-03-12T03:25:11.220Z,2.70
2023-03-12T03:27:37.994Z,2.70
2023-03-12T03:30:05.815Z,2.70
2023-03-12T03:32:32.508Z,2.60
2023-03-12T03:35:00.344Z,2.60
2023-03-12T03:37:26.976Z,2.60
2023-03-12T03:39:56.071Z,2.60
2023-03-12T03:42:24.857Z,2.60
2023-03-12T03:44:51.477Z,2.70
2023-03-12T03:47:21.348Z,2.70
2023-03-12T03:49:50.306Z,2.70
2023-03-12T03:52:17.132Z,2.80
2023-03-12T03:54:46.323Z,2.80
2023-03-12T03:57:15.450Z,2.80
2023-03-12T03:59:42.088Z,2.80
2023-03-12T04:02:10.937Z,2.90
2023-03-12T04:04:37.600Z,2.90
2023-03-12T04:07:06.447Z,2.90
2023-03-12T04:09:40.324Z,2.90
2023-03-12T04:12:07.228Z,2.90
2023-03-12T04:14:38.730Z,2.90
2023-03-12T04:17:05.386Z,3.00
2023-03-12T04:19:34.478Z,3.00
2023-03-12T04:22:03.816Z,3.00
2023-03-12T04:24:30.570Z,3.00
2023-03-12T04:26:57.344Z,3.10
2023-03-12T04:29:27.179Z,3.10
2023-03-12T04:31:54.252Z,3.10
2023-03-12T04:34:21.161Z,3.10
2023-03-12T04:36:50.072Z,3.00
2023-03-12T04:39:20.869Z,3.10
2023-03-12T04:41:47.776Z,3.10
2023-03-12T04:44:15.134Z,3.10
2023-03-12T04:46:44.694Z,3.10
2023-03-12T04:49:13.726Z,3.10
2023-03-12T04:51:40.374Z,3.10
2023-03-12T04:54:07.032Z,3.00
2023-03-12T04:56:36.114Z,3.00
2023-03-12T04:59:05.064Z,2.90
2023-03-12T05:01:37.507Z,2.90
2023-03-12T05:04:06.942Z,2.90
2023-03-12T05:06:36.295Z,2.90
2023-03-12T05:09:05.647Z,2.90
2023-03-12T05:11:34.521Z,2.90
2023-03-12T05:14:03.332Z,2.90
2023-03-12T05:16:30.112Z,2.80
2023-03-12T05:18:56.793Z,2.70
2023-03-12T05:21:25.667Z,2.70
2023-03-12T05:23:54.863Z,2.70
2023-03-12T05:26:25.228Z,2.60
2023-03-12T05:28:52.339Z,2.70
2023-03-12T05:31:19.806Z,2.60
2023-03-12T05:33:47.145Z,2.60
2023-03-12T05:36:14.443Z,2.60
2023-03-12T05:38:44.067Z,2.50
2023-03-12T05:41:21.635Z,2.60
2023-03-12T05:43:50.708Z,2.60
2023-03-12T05:46:19.623Z,2.60
2023-03-12T05:48:46.581Z,2.60
2023-03-12T05:51:16.012Z,2.60
2023-03-12T05:53:42.658Z,2.60
2023-03-12T05:56:17.220Z,2.60
2023-03-12T05:58:44.598Z,2.60
2023-03-12T06:01:23.008Z,2.60
2023-03-12T06:03:50.184Z,2.60
2023-03-12T06:06:19.642Z,2.60
2023-03-12T06:08:48.943Z,2.60
2023-03-12T06:11:18.154Z,2.60
2023-03-12T06:13:47.098Z,2.60
2023-03-12T06:16:19.993Z,2.60
2023-03-12T06:18:49.413Z,2.60
2023-03-12T06:21:18.920Z,2.70
2023-03-12T06:23:48.637Z,2.70
2023-03-12T06:26:16.509Z,2.70
2023-03-12T06:28:43.344Z,2.80
2023-03-12T06:31:12.240Z,2.80
2023-03-12T06:33:39.407Z,2.80
2023-03-12T06:36:09.348Z,2.90
2023-03-12T06:38:41.149Z,2.90
2023-03-12T06:41:17.669Z,2.90
2023-03-12T06:43:47.458Z,2.90
2023-03-12T06:46:19.479Z,2.90
2023-03-12T06:48:46.600Z,2.90
2023-03-12T06:51:15.519Z,2.90
2023-03-12T06:53:42.745Z,3.00
2023-03-12T06:56:10.089Z,3.00
2023-03-12T06:58:36.819Z,3.00
2023-03-12T07:01:06.574Z,3.10
2023-03-12T07:03:35.993Z,3.10
2023-03-12T07:06:06.044Z,3.10
2023-03-12T07:08:32.709Z,3.10
2023-03-12T07:11:05.315Z,3.20
2023-03-12T07:13:31.959Z,3.20
2023-03-12T07:15:58.630Z,3.20
2023-03-12T07:18:28.073Z,3.30
2023-03-12T07:20:57.223Z,3.30
2023-03-12T07:23:24.365Z,3.30
2023-03-12T07:25:52.008Z,3.30
2023-03-12T07:28:19.850Z,3.30
2023-03-12T07:30:50.507Z,3.40
2023-03-12T07:33:21.769Z,3.50
2023-03-12T07:35:53.357Z,3.60
2023-03-12T07:38:20.228Z,3.70
2023-03-12T07:41:00.272Z,3.80
2023-03-12T07:43:29.586Z,3.90
2023-03-12T07:45:56.358Z,3.90
2023-03-12T07:48:23.398Z,4.00
2023-03-12T07:50:52.332Z,3.90
2023-03-12T07:53:19.122Z,3.90
2023-03-12T07:55:48.098Z,4.00
2023-03-12T07:58:18.364Z,4.00
2023-03-12T08:00:49.594Z,4.10
2023-03-12T08:03:17.172Z,4.20
2023-03-12T08:05:44.021Z,4.20
2023-03-12T08:08:10.790Z,4.20
2023-03-12T08:10:38.148Z,4.30
2023-03-12T08:13:04.849Z,4.30
2023-03-12T08:15:31.722Z,4.30
2023-03-12T08:18:01.410Z,4.40
2023-03-12T08:20:28.188Z,4.40
2023-03-12T08:22:59.442Z,4.50
2023-03-12T08:25:26.388Z,4.50
2023-03-12T08:27:57.772Z,4.50
2023-03-12T08:30:29.834Z,4.60
2023-03-12T08:32:59.904Z,4.60
2023-03-12T08:35:26.723Z,4.60
2023-03-12T08:37:53.404Z,4.70
2023-03-12T08:40:22.456Z,4.70
2023-03-12T08:42:49.093Z,4.80
2023-03-12T08:45:16.133Z,4.80
2023-03-12T08:47:44.278Z,4.80
2023-03-12T08:50:16.415Z,4.80
2023-03-12T08:52:43.980Z,4.70
2023-03-12T08:55:14.128Z,4.80
2023-03-12T08:57:43.357Z,4.90
2023-03-12T09:00:15.060Z,4.90
2023-03-12T09:02:46.852Z,5.00
2023-03-12T09:05:18.254Z,4.90
2023-03-12T09:07:45.004Z,4.90
2023-03-12T09:10:14.217Z,4.90
2023-03-12T09:12:40.899Z,4.90
2023-03-12T09:15:09.054Z,4.90
2023-03-12T09:17:35.856Z,4.90
2023-03-12T09:20:05.675Z,5.00
2023-03-12T09:22:36.792Z,4.90
2023-03-12T09:25:08.729Z,5.00
2023-03-12T09:27:49.892Z,5.00
2023-03-12T09:30:20.008Z,5.00
2023-03-12T09:32:47.831Z,5.00
2023-03-12T09:35:15.728Z,5.00
2023-03-12T09:37:47.528Z,5.20
2023-03-12T09:40:21.792Z,5.20
2023-03-12T09:42:56.854Z,5.30
2023-03-12T09:45:26.215Z,5.30
2023-03-12T09:48:00.858Z,5.30
2023-03-12T09:50:43.213Z,5.40
2023-03-12T09:53:32.876Z,5.40
2023-03-12T09:56:02.190Z,5.50
2023-03-12T09:58:33.030Z,5.60
2023-03-12T10:01:38.387Z,5.60
2023-03-12T10:04:28.917Z,5.70
2023-03-12T10:07:18.551Z,5.80
2023-03-12T10:10:18.329Z,5.90
2023-03-12T10:13:02.815Z,6.00
2023-03-12T10:16:08.263Z,6.10
2023-03-12T10:19:00.951Z,6.20
2023-03-12T10:21:50.096Z,6.20
2023-03-12T10:24:25.232Z,6.20
2023-03-12T10:26:54.983Z,6.10
2023-03-12T10:29:32.582Z,6.10
2023-03-12T10:32:11.385Z,6.10
2023-03-12T10:34:54.929Z,6.20
2023-03-12T10:37:42.869Z,6.30
2023-03-12T10:40:39.002Z,6.40
2023-03-12T10:43:10.551Z,6.50
2023-03-12T10:46:04.608Z,6.70
2023-03-12T10:48:33.805Z,6.80
2023-03-12T10:51:07.180Z,6.90
2023-03-12T10:53:44.610Z,7.00
2023-03-12T10:56:13.028Z,7.00
2023-03-12T10:58:41.123Z,7.00
2023-03-12T11:01:28.304Z,7.00
2023-03-12T11:04:14.921Z,7.10
2023-03-12T11:07:01.530Z,7.10
2023-03-12T11:09:30.424Z,7.10
2023-03-12T11:11:59.347Z,7.40
2023-03-12T11:14:31.278Z,7.70
2023-03-12T11:17:24.135Z,8.20
2023-03-12T11:19:51.695Z,8.70
2023-03-12T11:22:34.899Z,8.90
2023-03-12T11:25:05.922Z,9.10
2023-03-12T11:27:35.494Z,9.20
2023-03-12T11:30:06.472Z,9.30
2023-03-12T11:32:43.542Z,9.50
2023-03-12T11:35:15.769Z,9.60
2023-03-12T11:38:22.396Z,9.80
2023-03-12T11:41:07.808Z,10.00
2023-03-12T11:43:44.199Z,10.10
2023-03-12T11:46:23.808Z,10.10
2023-03-12T11:48:59.895Z,10.20
2023-03-12T11:51:32.205Z,10.30
2023-03-12T11:54:01.936Z,10.40
2023-03-12T11:56:34.591Z,10.50
2023-03-12T11:59:19.921Z,10.70
2023-03-12T12:02:34.729Z,11.00
2023-03-12T12:05:01.302Z,11.20
2023-03-12T12:07:48.406Z,11.60
2023-03-12T12:10:36.973Z,12.10
2023-03-12T12:13:10.674Z,12.70
2023-03-12T12:15:58.942Z,13.00
2023-03-12T12:18:53.592Z,13.30
2023-03-12T12:21:20.145Z,13.40
2023-03-12T12:23:56.853Z,13.30
2023-03-12T12:26:37.951Z,13.50
2023-03-12T12:29:23.161Z,13.40
2023-03-12T12:32:00.628Z,13.70
2023-03-12T12:35:08.277Z,13.50
2023-03-12T12:37:34.869Z,13.40
2023-03-12T12:40:24.199Z,13.40
2023-03-12T12:43:10.734Z,13.30
2023-03-12T12:45:42.345Z,13.20
2023-03-12T12:48:16.919Z,13.10
2023-03-12T12:50:50.308Z,13.00
2023-03-12T12:53:50.212Z,13.50
2023-03-12T12:56:25.370Z,14.50
2023-03-12T12:59:04.808Z,15.00
2023-03-12T13:01:36.455Z,15.70
2023-03-12T13:04:20.674Z,16.10
2023-03-12T13:07:01.520Z,15.60
2023-03-12T13:09:52.320Z,14.90
2023-03-12T13:12:25.148Z,14.30
2023-03-12T13:14:53.780Z,13.90
2023-03-12T13:17:25.699Z,13.80
2023-03-12T13:20:13.866Z,13.50
2023-03-12T13:23:19.416Z,13.70
2023-03-12T13:25:54.749Z,13.70
2023-03-12T13:28:30.201Z,13.80
2023-03-12T13:30:59.756Z,13.90
2023-03-12T13:33:50.452Z,13.90
2023-03-12T13:36:17.145Z,13.90
2023-03-12T13:39:06.774Z,13.80
2023-03-12T13:41:38.043Z,13.60
2023-03-12T13:44:23.272Z,13.50
2023-03-12T13:47:03.146Z,13.30
2023-03-12T13:49:40.114Z,13.20
2023-03-12T13:52:17.907Z,13.00
2023-03-12T13:55:07.864Z,13.00
2023-03-12T13:57:43.180Z,13.10
2023-03-12T14:00:27.758Z,13.40
2023-03-12T14:03:16.646Z,13.50
2023-03-12T14:05:58.450Z,13.50
2023-03-12T14:08:51.927Z,13.70
2023-03-12T14:11:42.741Z,13.70
2023-03-12T14:14:24.134Z,13.50
2023-03-12T14:17:00.543Z,13.50
2023-03-12T14:19:33.801Z,13.50
2023-03-12T14:22:04.321Z,13.50
2023-03-12T14:24:41.481Z,13.50
2023-03-12T14:27:18.838Z,13.50
2023-03-12T14:29:54.385Z,13.40
2023-03-12T14:32:24.902Z,13.40
2023-03-12T14:35:02.854Z,13.30
2023-03-12T14:37:39.532Z,13.20
2023-03-12T14:40:19.946Z,13.10
2023-03-12T14:42:47.395Z,13.20
2023-03-12T14:45:19.543Z,13.10
2023-03-12T14:47:54.788Z,13.20
2023-03-12T14:50:32.222Z,13.10
2023-03-12T14:53:20.310Z,13.10
2023-03-12T14:55:46.978Z,13.10
2023-03-12T14:58:18.826Z,13.20
2023-03-12T15:00:59.757Z,13.30
2023-03-12T15:03:27.940Z,13.30
2023-03-12T15:05:58.340Z,13.40
2023-03-12T15:08:25.784Z,13.30
2023-03-12T15:10:56.992Z,13.30
2023-03-12T15:13:26.069Z,13.10
2023-03-12T15:15:54.752Z,12.90
2023-03-12T15:18:26.485Z,12.80
2023-03-12T15:20:57.296Z,12.80
2023-03-12T15:23:25.567Z,12.90
2023-03-12T15:26:17.993Z,13.00
2023-03-12T15:29:03.046Z,13.20
2023-03-12T15:32:12.986Z,13.50
2023-03-12T15:34:42.447Z,13.70
2023-03-12T15:37:32.518Z,13.80
2023-03-12T15:40:02.073Z,13.80
2023-03-12T15:42:46.195Z,13.90
2023-03-12T15:45:40.276Z,13.80
2023-03-12T15:48:20.897Z,13.80
2023-03-12T15:50:47.652Z,13.70
2023-03-12T15:53:16.682Z,13.70
2023-03-12T15:55:54.175Z,13.80
2023-03-12T15:58:29.708Z,13.70
2023-03-12T16:01:06.408Z,13.60
2023-03-12T16:03:33.204Z,13.50
2023-03-12T16:06:02.134Z,13.50
2023-03-12T16:08:51.668Z,13.40
2023-03-12T16:11:24.497Z,13.30
2023-03-12T16:14:04.312Z,13.30
2023-03-12T16:16:31.046Z,13.20
2023-03-12T16:18:57.794Z,13.10
2023-03-12T16:21:24.600Z,13.10
2023-03-12T16:23:53.829Z,12.90
2023-03-12T16:26:20.597Z,12.80
2023-03-12T16:28:48.125Z,12.60
2023-03-12T16:31:16.185Z,12.60
2023-03-12T16:33:43.888Z,12.50
2023-03-12T16:36:19.657Z,12.50
2023-03-12T16:38:48.714Z,12.40
2023-03-12T16:41:17.740Z,12.30
2023-03-12T16:43:51.251Z,12.20
2023-03-12T16:46:20.443Z,12.20
2023-03-12T16:48:54.684Z,12.10
2023-03-12T16:51:25.100Z,12.10
2023-03-12T16:54:08.475Z,12.00
2023-03-12T16:56:41.020Z,11.90
2023-03-12T16:59:26.347Z,11.90
2023-03-12T17:01:53.653Z,11.90
2023-03-12T17:04:20.542Z,11.80
2023-03-12T17:06:47.178Z,11.80
2023-03-12T17:09:16.342Z,11.70
2023-03-12T17:11:43.573Z,11.70
2023-03-12T17:14:20.406Z,11.70
2023-03-12T17:16:50.159Z,11.60
2023-03-12T17:19:16.863Z,11.60
2023-03-12T17:21:44.198Z,11.60
2023-03-12T17:24:13.839Z,11.50
2023-03-12T17:26:41.364Z,11.50
2023-03-12T17:29:10.323Z,11.40
2023-03-12T17:31:37.619Z,11.30
2023-03-12T17:34:04.900Z,11.30
2023-03-12T17:36:31.578Z,11.30
2023-03-12T17:38:58.279Z,11.30
2023-03-12T17:41:27.596Z,11.20
2023-03-12T17:43:55.148Z,11.10
2023-03-12T17:46:24.398Z,11.00
2023-03-12T17:48:53.724Z,11.10
2023-03-12T17:51:23.058Z,11.00
2023-03-12T17:53:54.502Z,11.00
2023-03-12T17:56:23.465Z,10.90
2023-03-12T17:58:50.204Z,10.90
2023-03-12T18:01:19.571Z,10.90
2023-03-12T18:03:50.019Z,10.90
2023-03-12T18:06:19.946Z,10.90
2023-03-12T18:08:49.145Z,10.90
2023-03-12T18:11:15.888Z,10.90
2023-03-12T18:13:42.520Z,11.00
2023-03-12T18:16:11.776Z,10.90
2023-03-12T18:18:42.997Z,10.90
2023-03-12T18:21:11.851Z,10.80
2023-03-12T18:23:38.601Z,10.90
2023-03-12T18:26:07.811Z,10.90
2023-03-12T18:28:34.499Z,10.80
2023-03-12T18:31:03.980Z,10.80
2023-03-12T18:33:34.875Z,10.80
2023-03-12T18:36:06.327Z,10.80
2023-03-12T18:38:33.061Z,10.80
2023-03-12T18:41:04.973Z,10.80
2023-03-12T18:43:35.188Z,10.80
2023-03-12T18:46:05.157Z,10.80
2023-03-12T18:48:32.140Z,10.80
2023-03-12T18:50:58.837Z,10.80
2023-03-12T18:53:28.762Z,10.80
2023-03-12T18:55:58.876Z,10.90
2023-03-12T18:58:28.966Z,10.90
2023-03-12T19:00:57.162Z,10.90
2023-03-12T19:03:30.577Z,10.80
2023-03-12T19:06:05.555Z,10.90
2023-03-12T19:08:32.754Z,10.80
2023-03-12T19:10:59.710Z,10.80
2023-03-12T19:13:26.473Z,10.70
2023-03-12T19:16:01.359Z,10.70
2023-03-12T19:18:29.042Z,10.70
2023-03-12T19:20:56.162Z,10.70
2023-03-12T19:23:23.476Z,10.70
2023-03-12T19:25:52.489Z,10.70
2023-03-12T19:28:19.161Z,10.70
2023-03-12T19:30:52.680Z,10.80
2023-03-12T19:33:19.407Z,10.80
2023-03-12T19:35:53.357Z,10.70
2023-03-12T19:38:22.695Z,10.70
2023-03-12T19:40:56.334Z,10.60
2023-03-12T19:43:23.686Z,10.60
2023-03-12T19:45:53.235Z,10.60
2023-03-12T19:48:23.408Z,10.60
2023-03-12T19:50:51.531Z,10.50
2023-03-12T19:53:19.571Z,10.50
2023-03-12T19:55:49.548Z,10.30
2023-03-12T19:58:17.197Z,10.20
2023-03-12T20:00:44.217Z,10.10
2023-03-12T20:03:13.479Z,10.00
2023-03-12T20:05:44.328Z,9.90
2023-03-12T20:08:11.856Z,9.80
2023-03-12T20:10:41.293Z,9.70
2023-03-12T20:13:12.708Z,9.70
2023-03-12T20:15:40.231Z,9.70
2023-03-12T20:18:06.900Z,9.70
2023-03-12T20:20:33.711Z,9.70
2023-03-12T20:23:02.654Z,9.80
2023-03-12T20:25:31.572Z,9.80
2023-03-12T20:27:58.487Z,9.70
2023-03-12T20:30:25.158Z,9.70
2023-03-12T20:32:54.122Z,9.80
2023-03-12T20:35:20.951Z,9.80
2023-03-12T20:37:47.674Z,9.80
2023-03-12T20:40:16.692Z,9.80
2023-03-12T20:42:45.591Z,9.70
2023-03-12T20:45:12.420Z,9.80
2023-03-12T20:47:41.287Z,9.80
2023-03-12T20:50:11.130Z,9.70
2023-03-12T20:52:37.894Z,9.80
2023-03-12T20:55:05.546Z,9.70
2023-03-12T20:57:34.745Z,9.80
2023-03-12T21:00:01.425Z,9.80
2023-03-12T21:02:35.275Z,9.80
2023-03-12T21:05:02.001Z,9.70
2023-03-12T21:07:33.712Z,9.70
2023-03-12T21:10:02.848Z,9.70
2023-03-12T21:12:29.480Z,9.70
2023-03-12T21:15:05.792Z,9.60
2023-03-12T21:17:40.382Z,9.70
2023-03-12T21:20:13.367Z,9.70
2023-03-12T21:22:46.748Z,9.70
2023-03-12T21:25:16.047Z,9.70
2023-03-12T21:27:50.630Z,9.70
2023-03-12T21:30:19.115Z,9.70
2023-03-12T21:32:45.810Z,9.70
2023-03-12T21:35:14.923Z,9.70
2023-03-12T21:37:41.620Z,9.70
2023-03-12T21:40:09.294Z,9.80
2023-03-12T21:42:38.601Z,9.80
2023-03-12T21:45:08.841Z,9.90
2023-03-12T21:47:39.458Z,9.90
2023-03-12T21:50:08.768Z,10.10
2023-03-12T21:52:41.256Z,10.10
2023-03-12T21:55:12.409Z,10.10
2023-03-12T21:57:41.835Z,10.00
2023-03-12T22:00:14.043Z,10.00
2023-03-12T22:02:44.640Z,10.00
2023-03-12T22:05:12.161Z,10.00
2023-03-12T22:07:39.170Z,9.90
2023-03-12T22:10:07.380Z,9.90
2023-03-12T22:12:34.046Z,9.90
2023-03-12T22:15:00.733Z,9.90
2023-03-12T22:17:27.736Z,9.90
2023-03-12T22:19:56.872Z,9.90
2023-03-12T22:22:23.545Z,9.90
2023-03-12T22:24:50.201Z,9.90
2023-03-12T22:27:16.841Z,9.90
2023-03-12T22:29:45.707Z,9.90
2023-03-12T22:32:12.389Z,9.90
2023-03-12T22:34:41.282Z,9.80
2023-03-12T22:37:07.957Z,9.80
2023-03-12T22:39:37.137Z,9.70
2023-03-12T22:42:03.993Z,9.70
2023-03-12T22:44:33.077Z,9.60
2023-03-12T22:46:59.793Z,9.60
2023-03-12T22:49:26.512Z,9.60
2023-03-12T22:51:53.137Z,9.70
2023-03-12T22:54:22.493Z,9.60
2023-03-12T22:56:49.153Z,9.60
2023-03-12T22:59:18.023Z,9.60
2023-03-12T23:01:44.717Z,9.60
2023-03-12T23:04:11.579Z,9.70
2023-03-12T23:06:43.859Z,9.70
2023-03-12T23:09:13.257Z,9.70
2023-03-12T23:11:42.300Z,9.70
2023-03-12T23:14:08.916Z,9.90
2023-03-12T23:16:35.698Z,9.90
2023-03-12T23:19:02.422Z,9.90
2023-03-12T23:21:29.143Z,9.80
2023-03-12T23:23:57.916Z,9.90
2023-03-12T23:26:28.498Z,9.90
2023-03-12T23:28:58.882Z,10.00
2023-03-12T23:31:28.306Z,9.90
2023-03-12T23:33:56.226Z,9.90
2023-03-12T23:36:25.579Z,9.80
2023-03-12T23:38:54.504Z,9.80
2023-03-12T23:41:26.515Z,9.80
2023-03-12T23:43:53.355Z,9.70
2023-03-12T23:46:20.713Z,9.80
2023-03-12T23:48:50.563Z,9.90
2023-03-12T23:51:21.128Z,10.00
2023-03-12T23:53:50.567Z,10.10
2023-03-12T23:56:24.075Z,10.20
2023-03-12T23:58:53.676Z,10.20
